Time;durP1;ratioP1;P1;durP2;ratioP2;P2;SDS_P1;SDS_P2;PMS_P1;PMS_P2;Temp;Humidity;BMP_temperature;BMP_pressure;BME280_temperature;BME280_humidity;BME280_pressure;Samples;Min_cycle;Max_cycle;Signal;HPM_P1;HPM_P2
2021/06/11 08:18:21;;;;;;;14.17;13.07;;;24.30;95.10;;;;;;5361053;23;20496;-56
2021/06/11 08:20:46;;;;;;;14.60;13.17;;;24.30;94.90;;;;;;4945191;28;20438;-57
2021/06/11 08:23:12;;;;;;;13.50;12.60;;;24.40;93.90;;;;;;4941751;28;20178;-56
2021/06/11 08:25:37;;;;;;;12.20;11.30;;;24.50;94.70;;;;;;4919298;29;20360;-57
2021/06/11 08:28:03;;;;;;;13.73;12.63;;;24.50;95.00;;;;;;4939118;28;20225;-56
2021/06/11 08:30:29;;;;;;;12.70;11.80;;;24.70;94.80;;;;;;4944562;28;20192;-54
2021/06/11 08:32:56;;;;;;;14.07;13.00;;;24.80;93.60;;;;;;4933815;28;20178;-55
2021/06/11 08:35:22;;;;;;;15.30;14.13;;;25.00;94.20;;;;;;4932869;29;20553;-54
2021/06/11 08:37:48;;;;;;;14.37;13.20;;;24.90;92.10;;;;;;4942556;28;20434;-56
2021/06/11 08:40:15;;;;;;;15.30;13.90;;;25.10;92.70;;;;;;4933230;29;20270;-54
2021/06/11 08:42:43;;;;;;;14.63;13.53;;;25.40;91.60;;;;;;4937859;28;20213;-57
2021/06/11 08:45:10;;;;;;;15.60;14.40;;;25.50;91.10;;;;;;4942928;28;20432;-58
2021/06/11 08:47:39;;;;;;;13.47;12.57;;;25.50;90.80;;;;;;4937765;28;20556;-61
2021/06/11 08:50:05;;;;;;;15.30;14.20;;;25.70;91.00;;;;;;4929855;28;20450;-59
2021/06/11 08:52:31;;;;;;;14.47;13.40;;;25.90;90.60;;;;;;4934172;29;20511;-58
2021/06/11 08:54:57;;;;;;;14.43;13.10;;;26.20;90.40;;;;;;4940685;28;20524;-57
2021/06/11 08:57:23;;;;;;;14.50;13.50;;;26.40;88.30;;;;;;4947181;28;20185;-55
2021/06/11 08:59:50;;;;;;;15.77;14.47;;;26.60;87.80;;;;;;4930590;29;20525;-56
2021/06/11 09:02:16;;;;;;;14.53;13.43;;;26.70;86.20;;;;;;4929214;29;20570;-58
2021/06/11 09:04:46;;;;;;;15.13;14.03;;;26.80;85.80;;;;;;4937525;29;20942;-57
2021/06/11 09:07:20;;;;;;;15.77;14.67;;;27.00;83.50;;;;;;4948234;29;20491;-55
2021/06/11 09:10:10;;;;;;;14.80;13.80;;;27.30;81.70;;;;;;4936063;29;20441;-54
2021/06/11 09:12:42;;;;;;;15.93;14.80;;;27.40;78.80;;;;;;4923256;28;20570;-57
2021/06/11 09:15:09;;;;;;;15.70;14.50;;;27.80;77.10;;;;;;4942949;29;20437;-57
2021/06/11 09:17:41;;;;;;;15.47;14.33;;;27.90;78.60;;;;;;4933665;29;21066;-57
2021/06/11 09:20:18;;;;;;;15.77;14.73;;;28.20;80.00;;;;;;4932357;29;20985;-57
2021/06/11 09:22:55;;;;;;;14.70;13.70;;;28.40;74.10;;;;;;4952153;28;20998;-57
2021/06/11 09:25:40;;;;;;;15.47;14.07;;;28.80;72.00;;;;;;4947353;29;20480;-57
2021/06/11 09:28:15;;;;;;;15.10;14.10;;;29.20;68.90;;;;;;4946289;28;20522;-57
2021/06/11 09:30:40;;;;;;;13.50;12.53;;;29.60;65.10;;;;;;4949091;28;20448;-57
2021/06/11 09:33:08;;;;;;;13.00;11.90;;;29.90;62.30;;;;;;4931424;29;20921;-58
2021/06/11 09:35:41;;;;;;;13.97;12.87;;;30.40;60.30;;;;;;4935929;29;20174;-53
2021/06/11 09:38:28;;;;;;;14.23;13.33;;;30.80;59.70;;;;;;4931716;29;20506;-58
2021/06/11 09:40:57;;;;;;;12.93;12.13;;;31.00;57.00;;;;;;4933480;29;20469;-59
2021/06/11 09:43:23;;;;;;;13.13;12.03;;;31.50;55.30;;;;;;4939176;28;20894;-58
2021/06/11 09:46:04;;;;;;;15.27;14.07;;;31.50;53.10;;;;;;4941447;29;20444;-58
2021/06/11 09:48:44;;;;;;;13.90;13.00;;;32.00;50.40;;;;;;4939983;28;20485;-58
2021/06/11 09:51:22;;;;;;;13.13;11.90;;;32.30;51.50;;;;;;4947323;29;20448;-58
2021/06/11 09:53:54;;;;;;;12.73;11.73;;;32.40;51.80;;;;;;4931588;28;20516;-60
2021/06/11 09:56:20;;;;;;;11.80;11.00;;;32.80;50.40;;;;;;4933332;28;20470;-59
2021/06/11 09:58:45;;;;;;;11.97;11.37;;;33.30;48.30;;;;;;4941765;29;20483;-58
2021/06/11 10:01:12;;;;;;;12.87;12.00;;;33.90;46.00;;;;;;4931155;29;20184;-59
2021/06/11 10:03:45;;;;;;;11.87;11.10;;;33.60;41.90;;;;;;4924144;29;20181;-60
2021/06/11 10:06:13;;;;;;;11.33;10.63;;;33.80;43.50;;;;;;4949630;29;20951;-60
2021/06/11 10:08:41;;;;;;;12.35;11.45;;;34.10;44.50;;;;;;4948557;29;20560;-59
2021/06/11 10:11:08;;;;;;;12.03;11.33;;;34.40;42.50;;;;;;4938074;29;20192;-57
2021/06/11 10:13:35;;;;;;;12.37;11.67;;;34.00;41.50;;;;;;4942418;29;20791;-59
2021/06/11 10:16:06;;;;;;;12.23;11.33;;;33.40;42.60;;;;;;4941047;29;20472;-58
2021/06/11 10:18:33;;;;;;;12.17;11.47;;;33.40;42.70;;;;;;4946870;29;20487;-58
2021/06/11 10:21:01;;;;;;;10.67;10.00;;;33.90;43.00;;;;;;4943157;28;20442;-59
2021/06/11 10:23:29;;;;;;;11.93;11.17;;;34.40;42.50;;;;;;4949208;28;20425;-59
2021/06/11 10:25:55;;;;;;;12.50;11.57;;;34.60;41.70;;;;;;4940441;29;20472;-59
2021/06/11 10:28:24;;;;;;;11.30;10.30;;;35.00;37.50;;;;;;4955635;28;20494;-59
2021/06/11 10:30:57;;;;;;;11.07;10.27;;;34.60;39.70;;;;;;4940926;29;20433;-59
2021/06/11 10:33:49;;;;;;;11.27;10.07;;;33.80;38.00;;;;;;4941512;29;20815;-58
2021/06/11 10:39:00;;;;;;;10.80;10.20;;;33.30;37.60;;;;;;4938373;29;20424;-56
2021/06/11 10:41:26;;;;;;;10.53;9.93;;;33.00;40.30;;;;;;4941565;28;20816;-59
2021/06/11 10:43:53;;;;;;;10.13;9.47;;;32.60;40.00;;;;;;4938220;29;20420;-57
2021/06/11 10:46:21;;;;;;;8.73;8.23;;;33.00;38.70;;;;;;4940472;29;20449;-58
2021/06/11 10:48:56;;;;;;;8.40;7.90;;;33.30;38.70;;;;;;4943399;29;20488;-58
2021/06/11 10:51:47;;;;;;;8.03;7.53;;;33.90;38.10;;;;;;4949274;29;20444;-58
2021/06/11 10:54:32;;;;;;;8.07;7.57;;;34.50;35.80;;;;;;4939834;29;20440;-59
2021/06/11 10:57:02;;;;;;;8.53;8.03;;;35.30;31.90;;;;;;4944801;28;20956;-56
2021/06/11 10:59:37;;;;;;;7.90;7.50;;;35.90;31.80;;;;;;4938131;28;20452;-56
2021/06/11 11:02:03;;;;;;;7.67;7.27;;;36.00;31.80;;;;;;4934391;29;20436;-59
2021/06/11 11:04:39;;;;;;;8.50;8.00;;;36.40;31.70;;;;;;4934285;29;20414;-56
2021/06/11 11:07:23;;;;;;;7.07;6.70;;;36.40;28.70;;;;;;4935334;29;20457;-58
2021/06/11 11:09:55;;;;;;;7.53;7.23;;;35.90;28.50;;;;;;4935931;29;20421;-59
2021/06/11 11:12:27;;;;;;;7.60;7.20;;;35.90;29.90;;;;;;4934875;28;20433;-60
2021/06/11 11:14:54;;;;;;;7.90;7.30;;;35.50;30.60;;;;;;4937532;28;20455;-56
2021/06/11 11:17:20;;;;;;;7.50;6.90;;;34.60;29.30;;;;;;4935300;28;20459;-58
2021/06/11 11:19:50;;;;;;;7.23;6.83;;;33.70;29.40;;;;;;4931329;29;20437;-58
2021/06/11 11:22:37;;;;;;;7.03;6.60;;;32.50;30.40;;;;;;4930904;28;20441;-59
2021/06/11 11:25:13;;;;;;;6.90;6.50;;;31.50;32.10;;;;;;4931906;29;20428;-60
2021/06/11 11:27:47;;;;;;;6.40;6.10;;;31.20;33.90;;;;;;4934194;28;20464;-59
2021/06/11 11:30:13;;;;;;;6.50;6.20;;;31.20;33.70;;;;;;4931855;29;20418;-58
2021/06/11 11:32:39;;;;;;;7.23;6.80;;;31.20;34.60;;;;;;4941695;28;20914;-58
2021/06/11 11:35:06;;;;;;;7.43;7.03;;;31.30;34.00;;;;;;4935370;29;20185;-61
2021/06/11 11:37:33;;;;;;;7.03;6.63;;;31.20;34.00;;;;;;4940583;29;20193;-61
2021/06/11 11:40:02;;;;;;;6.40;6.03;;;30.80;34.40;;;;;;4938047;28;20426;-59
2021/06/11 11:42:28;;;;;;;6.60;6.30;;;30.70;36.30;;;;;;4939649;28;20492;-58
2021/06/11 11:44:53;;;;;;;6.97;6.57;;;30.80;34.70;;;;;;4939728;29;20563;-56
2021/06/11 11:47:19;;;;;;;7.03;6.63;;;30.80;34.20;;;;;;4940229;29;20197;-57
2021/06/11 11:49:44;;;;;;;6.17;5.87;;;30.70;34.40;;;;;;4936384;28;20182;-59
2021/06/11 11:52:10;;;;;;;7.03;6.63;;;30.60;35.90;;;;;;4941677;28;20194;-57
2021/06/11 11:54:36;;;;;;;7.10;6.70;;;30.90;35.90;;;;;;4937957;28;20864;-59
2021/06/11 11:57:05;;;;;;;7.20;6.80;;;31.10;34.40;;;;;;4937534;28;20449;-58
2021/06/11 11:59:30;;;;;;;8.70;7.50;;;31.00;34.80;;;;;;4940533;29;20568;-59
2021/06/11 12:01:56;;;;;;;7.43;6.83;;;30.90;34.90;;;;;;4932253;29;20450;-59
2021/06/11 12:04:25;;;;;;;6.83;6.43;;;31.10;34.90;;;;;;4932355;29;20189;-59
2021/06/11 12:06:50;;;;;;;6.93;6.53;;;31.10;32.50;;;;;;4938456;29;20208;-58
2021/06/11 12:09:16;;;;;;;7.10;6.70;;;31.10;33.60;;;;;;4934160;29;20449;-58
2021/06/11 12:11:42;;;;;;;7.20;6.70;;;30.90;33.20;;;;;;4918612;29;20243;-59
2021/06/11 12:14:08;;;;;;;7.73;7.10;;;30.40;35.30;;;;;;4932837;29;20425;-59
2021/06/11 12:16:34;;;;;;;7.50;7.00;;;30.20;36.50;;;;;;4926153;29;20704;-58
2021/06/11 12:19:01;;;;;;;7.90;7.30;;;30.60;39.20;;;;;;4939446;29;20481;-58
2021/06/11 12:21:27;;;;;;;7.97;7.33;;;30.90;36.10;;;;;;4945926;29;20448;-58
2021/06/11 12:23:52;;;;;;;8.60;8.10;;;30.70;36.30;;;;;;4940692;29;20478;-58
2021/06/11 12:26:18;;;;;;;9.27;8.57;;;30.50;37.70;;;;;;4943287;29;20802;-59
2021/06/11 12:28:44;;;;;;;8.20;7.60;;;30.40;38.60;;;;;;4935854;29;20260;-61
2021/06/11 12:31:12;;;;;;;8.37;7.93;;;30.50;37.90;;;;;;4932768;29;20638;-59
2021/06/11 12:33:37;;;;;;;8.43;7.93;;;30.60;38.80;;;;;;4943845;28;20511;-60
2021/06/11 12:36:04;;;;;;;8.93;8.43;;;30.70;39.40;;;;;;4932310;28;20501;-59
2021/06/11 12:38:30;;;;;;;8.50;7.90;;;31.20;40.20;;;;;;4932904;29;20276;-61
2021/06/11 12:40:57;;;;;;;8.97;8.43;;;31.40;36.40;;;;;;4932284;29;20421;-60
2021/06/11 12:46:08;;;;;;;8.33;7.83;;;31.70;34.60;;;;;;4930673;29;20568;-60
2021/06/11 12:48:34;;;;;;;8.00;7.60;;;32.30;35.50;;;;;;4927099;28;20496;-60
2021/06/11 12:50:59;;;;;;;7.23;6.80;;;32.70;34.20;;;;;;4930383;29;20446;-61
2021/06/11 12:53:25;;;;;;;6.90;6.50;;;32.80;33.30;;;;;;4930029;29;20186;-59
2021/06/11 12:55:50;;;;;;;8.30;7.90;;;33.10;33.50;;;;;;4923281;29;20249;-59
2021/06/11 12:58:19;;;;;;;7.30;6.90;;;33.50;32.50;;;;;;4927500;28;20349;-59
2021/06/11 13:00:44;;;;;;;7.73;7.13;;;34.10;32.20;;;;;;4938785;29;20209;-59
2021/06/11 13:03:10;;;;;;;7.03;6.47;;;34.50;29.60;;;;;;4936437;29;20437;-60
2021/06/11 13:05:35;;;;;;;6.50;6.20;;;34.90;30.70;;;;;;4920106;29;20485;-59
2021/06/11 13:08:01;;;;;;;7.63;7.23;;;35.40;30.20;;;;;;4937156;29;20220;-60
2021/06/11 13:10:27;;;;;;;7.30;7.00;;;35.90;28.30;;;;;;4940691;28;20189;-59
2021/06/11 13:12:55;;;;;;;6.87;6.47;;;36.50;28.20;;;;;;4935398;29;20848;-59
2021/06/11 13:15:21;;;;;;;7.00;6.50;;;37.10;25.80;;;;;;4942427;28;20185;-60
2021/06/11 13:17:46;;;;;;;6.33;6.03;;;37.10;25.50;;;;;;4940825;28;20484;-60
2021/06/11 13:20:12;;;;;;;6.87;6.57;;;37.10;26.70;;;;;;4940356;29;20194;-60
2021/06/11 13:22:42;;;;;;;6.67;6.37;;;37.30;24.40;;;;;;4936282;29;20194;-59
2021/06/11 13:25:09;;;;;;;6.73;6.43;;;37.50;24.60;;;;;;4940710;29;20438;-60
2021/06/11 13:27:34;;;;;;;6.53;6.13;;;38.10;23.90;;;;;;4935062;29;20497;-60
2021/06/11 13:30:00;;;;;;;6.47;6.07;;;38.20;22.40;;;;;;4939581;29;20476;-60
2021/06/11 13:32:25;;;;;;;6.23;5.93;;;37.70;24.50;;;;;;4935589;29;20187;-63
2021/06/11 13:34:51;;;;;;;7.20;6.70;;;37.90;22.80;;;;;;4939096;28;20198;-59
2021/06/11 13:37:21;;;;;;;7.60;7.20;;;37.90;22.50;;;;;;4936629;29;21002;-60
2021/06/11 13:39:46;;;;;;;6.97;6.47;;;37.90;22.80;;;;;;4936551;29;20215;-59
2021/06/11 13:42:12;;;;;;;7.23;6.93;;;38.10;23.60;;;;;;4937261;28;20449;-61
2021/06/11 13:44:37;;;;;;;7.17;6.70;;;38.30;21.70;;;;;;4931990;28;20193;-60
2021/06/11 13:47:06;;;;;;;7.83;7.43;;;38.40;21.60;;;;;;4934510;29;20201;-62
2021/06/11 13:49:32;;;;;;;8.00;7.50;;;38.00;22.10;;;;;;4937739;29;20495;-62
2021/06/11 13:51:58;;;;;;;8.80;8.30;;;37.10;23.50;;;;;;4936607;29;20431;-61
2021/06/11 13:54:24;;;;;;;10.37;9.77;;;36.70;24.50;;;;;;4930019;29;20476;-61
2021/06/11 13:56:50;;;;;;;10.67;10.00;;;35.80;26.00;;;;;;4941934;29;20193;-62
2021/06/11 13:59:16;;;;;;;10.87;10.27;;;35.40;27.30;;;;;;4935162;29;20440;-61
2021/06/11 14:01:42;;;;;;;10.07;9.50;;;35.20;27.50;;;;;;4933880;29;20432;-59
2021/06/11 14:04:07;;;;;;;10.70;9.90;;;35.40;28.50;;;;;;4931230;29;20265;-62
2021/06/11 14:06:33;;;;;;;9.83;9.33;;;35.70;28.60;;;;;;4927575;29;20268;-60
2021/06/11 14:08:58;;;;;;;9.23;8.50;;;35.50;28.30;;;;;;4927995;29;20315;-60
2021/06/11 14:11:24;;;;;;;11.30;10.60;;;35.90;28.20;;;;;;4937930;28;20652;-59
2021/06/11 14:13:49;;;;;;;10.30;9.60;;;36.00;25.50;;;;;;4948881;29;20193;-59
2021/06/11 14:16:15;;;;;;;9.80;9.30;;;36.20;26.30;;;;;;4940210;29;20253;-59
2021/06/11 14:18:41;;;;;;;10.60;10.00;;;36.50;26.80;;;;;;4938034;29;20237;-59
2021/06/11 14:21:06;;;;;;;11.30;10.70;;;37.00;25.80;;;;;;4916676;29;20716;-60
2021/06/11 14:23:32;;;;;;;11.70;11.00;;;36.90;25.30;;;;;;4926006;29;20240;-59
2021/06/11 14:25:58;;;;;;;11.40;10.80;;;35.50;26.50;;;;;;4935778;28;20441;-58
2021/06/11 14:28:24;;;;;;;11.97;11.27;;;34.70;27.90;;;;;;4936394;28;20477;-54
2021/06/11 14:30:49;;;;;;;10.27;9.60;;;34.10;29.30;;;;;;4936729;28;20193;-58
2021/06/11 14:33:15;;;;;;;11.53;10.93;;;33.80;31.20;;;;;;4949200;28;20703;-58
2021/06/11 14:35:42;;;;;;;10.73;9.93;;;34.40;29.90;;;;;;4944278;28;20181;-58
2021/06/11 14:38:10;;;;;;;10.80;10.20;;;34.80;28.20;;;;;;4927461;28;20189;-58
2021/06/11 14:40:35;;;;;;;10.77;10.17;;;34.90;28.20;;;;;;4932122;28;20449;-58
2021/06/11 14:43:01;;;;;;;10.30;9.70;;;34.60;27.50;;;;;;4940573;28;20812;-61
2021/06/11 14:45:27;;;;;;;10.67;10.00;;;34.80;28.10;;;;;;4934958;28;20980;-58
2021/06/11 14:47:53;;;;;;;10.10;9.57;;;35.00;28.40;;;;;;4926515;29;20210;-58
2021/06/11 14:50:18;;;;;;;10.03;9.43;;;35.30;26.70;;;;;;4930475;28;20174;-58
2021/06/11 14:52:50;;;;;;;10.67;9.97;;;35.70;26.80;;;;;;4935443;28;20182;-59
2021/06/11 14:55:18;;;;;;;10.37;9.80;;;35.90;26.00;;;;;;4925642;28;20272;-59
2021/06/11 14:57:44;;;;;;;9.97;9.40;;;35.80;26.50;;;;;;4936451;29;20512;-59
2021/06/11 15:00:12;;;;;;;10.00;9.30;;;36.10;27.40;;;;;;4934814;29;20924;-59
2021/06/11 15:02:39;;;;;;;10.50;9.80;;;36.40;26.00;;;;;;4935472;28;20442;-57
2021/06/11 15:05:07;;;;;;;9.83;9.23;;;35.60;24.90;;;;;;4938111;29;20438;-58
2021/06/11 15:07:33;;;;;;;9.70;9.20;;;35.20;25.80;;;;;;4937303;28;20471;-57
2021/06/11 15:09:58;;;;;;;10.27;9.77;;;34.70;25.80;;;;;;4933402;29;20444;-58
2021/06/11 15:12:24;;;;;;;9.77;9.27;;;34.20;26.40;;;;;;4934614;28;20193;-57
2021/06/11 15:14:50;;;;;;;9.93;9.43;;;34.10;26.70;;;;;;4949087;28;20189;-56
2021/06/11 15:17:16;;;;;;;9.50;9.00;;;34.30;26.80;;;;;;4938549;28;20438;-58
2021/06/11 15:19:44;;;;;;;10.17;9.57;;;34.40;25.90;;;;;;4945377;28;20261;-61
2021/06/11 15:22:10;;;;;;;9.70;9.20;;;34.00;25.80;;;;;;4943103;29;20460;-61
2021/06/11 15:24:35;;;;;;;10.00;9.50;;;33.80;25.90;;;;;;4940921;29;21095;-61
2021/06/11 15:27:01;;;;;;;9.67;9.17;;;33.80;25.50;;;;;;4927743;29;20693;-61
2021/06/11 15:29:26;;;;;;;10.13;9.53;;;33.60;26.20;;;;;;4941021;29;20197;-61
2021/06/11 15:31:52;;;;;;;10.23;9.73;;;33.60;26.50;;;;;;4935808;29;20194;-61
2021/06/11 15:34:17;;;;;;;9.97;9.47;;;33.70;26.40;;;;;;4936586;29;20243;-61
2021/06/11 15:36:43;;;;;;;11.07;10.47;;;33.50;26.90;;;;;;4934797;29;20772;-61
2021/06/11 15:39:09;;;;;;;10.60;10.00;;;33.50;27.40;;;;;;4936867;28;20244;-59
2021/06/11 15:41:34;;;;;;;11.40;10.70;;;33.40;28.50;;;;;;4948175;29;20217;-57
2021/06/11 15:44:00;;;;;;;10.20;9.47;;;33.40;29.10;;;;;;4945511;28;20240;-59
2021/06/11 15:46:26;;;;;;;11.70;11.00;;;33.60;29.50;;;;;;4938335;28;20185;-58
2021/06/11 15:48:51;;;;;;;12.10;11.40;;;34.00;28.90;;;;;;4940267;29;20217;-61
2021/06/11 15:51:17;;;;;;;12.50;11.77;;;33.90;28.20;;;;;;4939978;29;20255;-59
2021/06/11 15:53:44;;;;;;;12.27;11.40;;;34.00;29.40;;;;;;4936272;29;20190;-61
2021/06/11 15:56:10;;;;;;;12.00;11.30;;;33.90;29.90;;;;;;4934860;29;20633;-58
2021/06/11 15:58:37;;;;;;;12.30;11.63;;;33.80;29.70;;;;;;4923626;29;20521;-58
2021/06/11 16:01:03;;;;;;;12.73;12.03;;;33.90;30.50;;;;;;4939438;28;20178;-58
2021/06/11 16:03:29;;;;;;;12.63;11.93;;;34.10;29.80;;;;;;4940837;29;20438;-58
2021/06/11 16:05:57;;;;;;;12.73;12.03;;;33.50;29.80;;;;;;4935508;29;20472;-60
2021/06/11 16:08:22;;;;;;;11.83;10.90;;;33.00;32.00;;;;;;4934551;29;20210;-59
2021/06/11 16:10:51;;;;;;;12.23;11.53;;;33.00;32.30;;;;;;4935553;29;20430;-60
2021/06/11 16:13:16;;;;;;;12.70;11.80;;;33.00;32.50;;;;;;4935097;29;20644;-60
2021/06/11 16:15:42;;;;;;;12.40;11.70;;;33.10;31.70;;;;;;4934592;29;20425;-58
2021/06/11 16:18:07;;;;;;;11.63;10.93;;;32.90;32.60;;;;;;4937897;29;20643;-58
2021/06/11 16:20:33;;;;;;;13.40;12.50;;;33.10;33.40;;;;;;4933645;29;20204;-58
2021/06/11 16:22:59;;;;;;;13.80;12.80;;;33.10;32.40;;;;;;4934533;28;20244;-58
2021/06/11 16:25:25;;;;;;;12.50;11.80;;;33.10;31.50;;;;;;4933089;29;20540;-58
2021/06/11 16:27:51;;;;;;;13.47;12.77;;;33.00;32.00;;;;;;4933595;29;20241;-58
2021/06/11 16:30:17;;;;;;;13.03;12.10;;;33.20;32.00;;;;;;4932659;29;20512;-58
2021/06/11 16:32:43;;;;;;;12.47;11.77;;;33.40;31.30;;;;;;4933209;29;20441;-58
2021/06/11 16:35:10;;;;;;;12.87;12.17;;;33.30;31.50;;;;;;4934973;28;20926;-58
2021/06/11 16:37:36;;;;;;;12.40;11.80;;;33.30;31.30;;;;;;4933352;29;20293;-58
2021/06/11 16:40:05;;;;;;;12.50;11.77;;;33.50;31.30;;;;;;4933956;29;20444;-61
2021/06/11 16:42:30;;;;;;;11.33;10.63;;;33.10;32.10;;;;;;4936938;29;20952;-58
2021/06/11 16:44:56;;;;;;;13.30;12.60;;;32.80;31.40;;;;;;4936391;28;20430;-59
2021/06/11 16:47:21;;;;;;;13.70;12.90;;;32.50;32.10;;;;;;4932353;29;20256;-58
2021/06/11 16:49:47;;;;;;;13.30;12.60;;;32.10;32.50;;;;;;4940144;29;20186;-58
2021/06/11 16:52:12;;;;;;;12.30;11.47;;;31.80;33.20;;;;;;4939296;29;20193;-60
2021/06/11 16:54:38;;;;;;;13.20;12.40;;;31.70;33.50;;;;;;4948309;28;20197;-60
2021/06/11 16:57:04;;;;;;;13.33;12.43;;;31.60;33.40;;;;;;4937606;28;20181;-59
2021/06/11 16:59:30;;;;;;;13.43;12.37;;;31.80;33.90;;;;;;4929713;29;20349;-59
2021/06/11 17:01:56;;;;;;;13.53;12.57;;;31.60;33.30;;;;;;4938997;29;20436;-58
2021/06/11 17:04:23;;;;;;;12.90;12.20;;;31.50;33.80;;;;;;4931834;29;20417;-60
2021/06/11 17:06:49;;;;;;;13.10;12.30;;;31.50;33.80;;;;;;4935825;29;20186;-60
2021/06/11 17:09:15;;;;;;;12.87;12.07;;;31.50;33.80;;;;;;4933144;29;20426;-57
2021/06/11 17:11:41;;;;;;;12.13;11.43;;;31.30;34.00;;;;;;4933819;28;20430;-58
2021/06/11 17:14:07;;;;;;;11.60;10.90;;;31.30;34.10;;;;;;4934203;29;20192;-57
2021/06/11 17:16:32;;;;;;;12.00;11.20;;;31.20;34.80;;;;;;4941826;29;20433;-57
2021/06/11 17:18:58;;;;;;;12.00;11.20;;;31.20;35.10;;;;;;4911344;29;20244;-57
2021/06/11 17:21:23;;;;;;;11.50;10.90;;;31.30;35.00;;;;;;4916204;29;20200;-57
2021/06/11 17:23:49;;;;;;;11.93;11.23;;;31.20;34.50;;;;;;4918279;29;20201;-58
2021/06/11 17:26:15;;;;;;;10.90;10.30;;;31.10;34.30;;;;;;4931975;29;20624;-58
2021/06/11 17:28:40;;;;;;;11.87;10.73;;;31.00;33.60;;;;;;4920450;29;20213;-61
2021/06/11 17:31:11;;;;;;;11.13;10.40;;;30.90;33.70;;;;;;4923287;29;20208;-55
2021/06/11 17:33:40;;;;;;;10.30;9.80;;;30.70;34.70;;;;;;4914510;29;20174;-57
2021/06/11 17:36:08;;;;;;;11.17;10.37;;;30.50;34.90;;;;;;4916150;29;20442;-56
2021/06/11 17:38:45;;;;;;;10.60;10.00;;;30.20;35.40;;;;;;4916136;29;20755;-57
2021/06/11 17:41:11;;;;;;;11.13;10.17;;;30.10;35.80;;;;;;4913816;29;20913;-56
2021/06/11 17:43:37;;;;;;;9.83;9.23;;;29.90;35.50;;;;;;4922447;29;20433;-56
2021/06/11 17:46:05;;;;;;;9.33;8.83;;;29.70;35.90;;;;;;4908435;29;20225;-56
2021/06/11 17:48:40;;;;;;;9.77;9.17;;;29.40;37.20;;;;;;4923640;29;20206;-59
2021/06/11 17:51:08;;;;;;;10.03;9.50;;;29.20;37.70;;;;;;4907997;29;20438;-59
2021/06/11 17:53:36;;;;;;;10.20;9.50;;;29.00;38.20;;;;;;4904549;29;20439;-59
2021/06/11 17:56:04;;;;;;;9.33;8.83;;;28.90;38.50;;;;;;4907885;29;21219;-58
2021/06/11 17:58:30;;;;;;;9.43;8.83;;;28.80;38.90;;;;;;4907617;29;20457;-57
2021/06/11 18:00:58;;;;;;;9.70;9.20;;;28.60;39.30;;;;;;4905949;29;20434;-56
2021/06/11 18:03:26;;;;;;;9.67;9.17;;;28.40;39.30;;;;;;4907574;29;20213;-58
2021/06/11 18:06:07;;;;;;;10.00;9.50;;;28.10;39.90;;;;;;4911510;29;20454;-54
2021/06/11 18:08:38;;;;;;;9.10;8.60;;;27.90;40.40;;;;;;4911479;29;20459;-58
2021/06/11 18:11:13;;;;;;;10.10;9.50;;;27.70;40.90;;;;;;4912063;29;20437;-58
2021/06/11 18:13:51;;;;;;;9.00;8.50;;;27.50;41.00;;;;;;4915432;29;20594;-56
2021/06/11 18:16:22;;;;;;;10.20;9.43;;;27.40;41.70;;;;;;4912487;29;20477;-58
2021/06/11 18:19:06;;;;;;;9.23;8.73;;;27.30;40.80;;;;;;4928696;28;20485;-57
2021/06/11 18:21:38;;;;;;;9.43;8.73;;;27.10;41.30;;;;;;4937223;28;20907;-55
2021/06/11 18:24:20;;;;;;;9.20;8.57;;;27.00;41.50;;;;;;4933794;29;20433;-56
2021/06/11 18:26:58;;;;;;;9.73;9.20;;;26.90;42.20;;;;;;4942094;29;21108;-57
2021/06/11 18:29:45;;;;;;;9.60;8.90;;;26.80;42.30;;;;;;4937567;29;20460;-55
2021/06/11 18:32:31;;;;;;;9.30;8.80;;;26.70;42.60;;;;;;4933983;29;21189;-55
2021/06/11 18:35:06;;;;;;;8.37;7.87;;;26.60;43.00;;;;;;4935518;28;20449;-55
2021/06/11 18:37:56;;;;;;;8.73;8.23;;;26.50;43.20;;;;;;4931794;28;20436;-54
2021/06/11 18:40:22;;;;;;;10.00;9.40;;;26.40;43.30;;;;;;4940274;28;20784;-56
2021/06/11 18:43:04;;;;;;;8.80;8.30;;;26.30;43.80;;;;;;4939133;28;20448;-52
2021/06/11 18:45:31;;;;;;;8.97;8.37;;;26.10;44.50;;;;;;4940397;29;20186;-54
2021/06/11 18:48:08;;;;;;;9.73;8.93;;;26.00;44.60;;;;;;4942118;29;20526;-56
2021/06/11 18:50:35;;;;;;;9.37;8.57;;;25.90;45.00;;;;;;4940362;28;20443;-56
2021/06/11 18:53:01;;;;;;;9.80;9.27;;;25.80;45.30;;;;;;4941338;28;20442;-54
2021/06/11 18:55:27;;;;;;;9.97;9.47;;;25.60;45.90;;;;;;4935492;28;20994;-57
2021/06/11 18:58:02;;;;;;;10.07;9.37;;;25.50;46.20;;;;;;4941998;29;20527;-56
2021/06/11 19:00:28;;;;;;;9.53;9.03;;;25.40;46.40;;;;;;4936948;29;20452;-56
2021/06/11 19:03:14;;;;;;;10.23;9.53;;;25.30;46.70;;;;;;4936531;29;20540;-58
2021/06/11 19:05:40;;;;;;;9.67;9.10;;;25.20;47.10;;;;;;4948934;28;20774;-55
2021/06/11 19:08:05;;;;;;;9.63;8.93;;;25.10;47.70;;;;;;4959627;28;20493;-55
2021/06/11 19:10:31;;;;;;;9.53;9.03;;;25.10;48.20;;;;;;4937832;29;20214;-54
2021/06/11 19:13:07;;;;;;;10.40;9.70;;;25.00;48.60;;;;;;4942934;29;20229;-58
2021/06/11 19:15:33;;;;;;;10.30;9.70;;;24.90;49.30;;;;;;4948220;29;20239;-56
2021/06/11 19:17:58;;;;;;;10.17;9.57;;;24.80;49.90;;;;;;4943447;28;20492;-55
2021/06/11 19:20:31;;;;;;;11.23;10.60;;;24.70;50.70;;;;;;4961927;28;20188;-55
2021/06/11 19:23:15;;;;;;;11.20;10.50;;;24.50;51.30;;;;;;4941246;28;20174;-56
2021/06/11 19:25:40;;;;;;;10.77;9.90;;;24.40;51.90;;;;;;4935121;29;20441;-54
2021/06/11 19:28:07;;;;;;;9.97;9.30;;;24.30;52.50;;;;;;4932504;29;20472;-57
2021/06/11 19:30:37;;;;;;;10.47;9.87;;;24.30;53.00;;;;;;4932808;29;20182;-55
2021/06/11 19:33:19;;;;;;;12.33;11.50;;;24.10;53.40;;;;;;4933995;28;20438;-55
2021/06/11 19:35:49;;;;;;;13.40;12.43;;;24.10;54.50;;;;;;4931808;29;20437;-56
2021/06/11 19:38:25;;;;;;;12.00;11.20;;;24.00;55.20;;;;;;4940106;28;20466;-55
2021/06/11 19:40:52;;;;;;;12.03;11.17;;;23.90;55.70;;;;;;4936797;29;20444;-54
2021/06/11 19:43:38;;;;;;;11.67;10.87;;;23.70;57.10;;;;;;4937818;29;20446;-56
2021/06/11 19:46:10;;;;;;;11.30;10.60;;;23.60;57.70;;;;;;4932528;29;20465;-56
2021/06/11 19:48:36;;;;;;;11.37;10.47;;;23.50;58.60;;;;;;4943502;28;20456;-57
2021/06/11 19:51:04;;;;;;;10.53;9.93;;;23.40;59.50;;;;;;4931853;29;20479;-56
2021/06/11 19:53:35;;;;;;;11.60;10.77;;;23.30;61.00;;;;;;4942570;28;20778;-55
2021/06/11 19:56:16;;;;;;;11.90;11.13;;;23.10;62.40;;;;;;4935310;29;20444;-53
2021/06/11 19:59:07;;;;;;;12.13;11.23;;;23.00;63.50;;;;;;4939730;29;20445;-53
2021/06/11 20:01:33;;;;;;;12.33;11.43;;;22.80;63.90;;;;;;4928819;29;20458;-57
2021/06/11 20:04:01;;;;;;;12.27;11.47;;;22.70;65.20;;;;;;4932309;29;20849;-58
2021/06/11 20:06:32;;;;;;;11.80;11.07;;;22.60;66.50;;;;;;4939267;29;20194;-57
2021/06/11 20:09:00;;;;;;;12.33;11.23;;;22.50;69.00;;;;;;4931971;29;20483;-55
2021/06/11 20:11:28;;;;;;;12.77;11.87;;;22.40;70.80;;;;;;4932445;29;20477;-55
2021/06/11 20:13:55;;;;;;;12.20;11.30;;;22.30;75.10;;;;;;4931753;29;20936;-57
2021/06/11 20:16:29;;;;;;;12.60;11.60;;;22.20;78.50;;;;;;4931473;29;20869;-55
2021/06/11 20:19:06;;;;;;;11.77;10.87;;;22.10;81.60;;;;;;4933100;29;20905;-55
2021/06/11 20:21:32;;;;;;;12.10;11.20;;;22.00;85.20;;;;;;4934732;29;21090;-55
2021/06/11 20:23:58;;;;;;;12.23;11.43;;;22.00;89.30;;;;;;4930201;29;20445;-56
2021/06/11 20:26:24;;;;;;;13.27;12.30;;;21.90;91.20;;;;;;4934849;29;21070;-57
2021/06/11 20:28:50;;;;;;;13.40;12.43;;;21.80;92.30;;;;;;4932622;29;20210;-53
2021/06/11 20:31:18;;;;;;;13.00;12.10;;;21.70;93.70;;;;;;4937232;28;20437;-57
2021/06/11 20:33:45;;;;;;;13.30;12.30;;;21.60;94.60;;;;;;4935415;28;20922;-58
2021/06/11 20:36:11;;;;;;;13.70;12.60;;;21.60;96.10;;;;;;4935911;29;20441;-57
2021/06/11 20:38:38;;;;;;;16.27;15.00;;;21.50;97.40;;;;;;4937354;28;20453;-58
2021/06/11 20:41:05;;;;;;;18.80;17.30;;;21.40;98.60;;;;;;4940063;29;20787;-55
2021/06/11 20:43:31;;;;;;;17.13;15.83;;;21.40;99.90;;;;;;4941386;29;20982;-56
2021/06/11 20:45:57;;;;;;;17.10;15.60;;;21.30;99.90;;;;;;4944036;28;20440;-57
2021/06/11 20:48:23;;;;;;;17.80;16.30;;;21.30;99.90;;;;;;4944366;28;21005;-55
2021/06/11 20:50:48;;;;;;;16.50;15.30;;;21.20;99.90;;;;;;4943598;29;20185;-58
2021/06/11 20:53:15;;;;;;;16.13;14.63;;;21.10;99.90;;;;;;4945217;28;20185;-56
2021/06/11 20:55:41;;;;;;;15.17;14.07;;;21.00;99.90;;;;;;4948417;28;20985;-53
2021/06/11 20:58:08;;;;;;;14.10;13.10;;;21.00;99.90;;;;;;4944560;29;21417;-56
2021/06/11 21:00:35;;;;;;;14.80;13.60;;;20.90;99.90;;;;;;4937691;28;20547;-56
2021/06/11 21:03:00;;;;;;;13.60;12.60;;;20.80;99.90;;;;;;4942620;29;20793;-57
2021/06/11 21:05:27;;;;;;;15.07;13.83;;;20.70;99.90;;;;;;4941571;29;20453;-57